• Join FlightAware (Why Join?)
  • Login
  • US Flag 
11:09AM EST


 

Airport Tracker/Info


-or-


 

Live Flight TrackerFlight Track Log ✈ WMA521 ✈ 15-Jan-2014 ✈ KFXE - MYAN / SAQ

Flight Track Log - Related Links

Times and Time Zones

All times are in EST time to prevent confusion due to time zone crossing. See the WMA521 flight status page for this flight to view local times or setup timezone preferences in your user account.

Time Position Orientation Groundspeed Altitude Reporting Facility
EST Latitude Longitude Course Direction KTS MPH feet Rate Location/Type
07:44AM 26.1975 -80.1703 88° East 74 85 300  Level Miami Center
07:45AM 26.1978 -80.1586 88° East 85 98 600 600 Climbing Miami Center
07:46AM 26.1983 -80.1286 89° East 95 109 1,200 540 Climbing Miami Center
07:47AM 26.2033 -80.0892 82° East 128 147 1,700 540 Climbing Miami Center
07:48AM 26.2125 -80.0547 73° East 125 144 2,300 600 Climbing Miami Center
07:49AM 26.2028 -80.0175 106° East 123 142 2,900 540 Climbing Miami Center
07:50AM 26.1911 -79.9778 108° East 137 158 3,500 540 Climbing Miami Center
07:51AM 26.1775 -79.9406 112° Southeast 138 159 4,100 540 Climbing Miami Center
07:52AM 26.1678 -79.8986 104° East 149 171 4,700 600 Climbing Miami Center
07:53AM 26.1728 -79.8547 83° East 142 163 5,400 600 Climbing Miami Center
07:54AM 26.1697 -79.8106 94° East 134 154 6,000 540 Climbing Miami Center
07:55AM 26.1683 -79.7758 93° East 140 161 6,400 540 Climbing Miami Center
07:56AM 26.1836 -79.7344 68° East 140 161 7,000 600 Climbing Miami Center
07:57AM 26.2011 -79.6933 65° Northeast 140 161 7,700 600 Climbing Miami Center
07:58AM 26.2144 -79.6519 70° East 145 167 8,300 600 Climbing Miami Center
07:59AM 26.2131 -79.6125 92° East 140 161 8,900 480 Climbing Miami Center
08:00AM 26.2011 -79.5797 112° Southeast 127 146 9,300 300 Climbing Miami Center
08:01AM 26.1811 -79.5447 122° Southeast 120 138 9,600 300 Climbing Miami Center
08:02AM 26.1586 -79.5094 125° Southeast 127 146 10,000 360 Climbing Miami Center
08:03AM 26.1406 -79.4719 118° Southeast 132 152 10,400 420 Climbing Miami Center
08:04AM 26.1203 -79.4344 121° Southeast 137 158 10,900 300 Climbing Miami Center
08:05AM 26.0981 -79.3947 122° Southeast 142 163 11,100 60 Climbing Miami Center
08:06AM 26.0717 -79.3525 125° Southeast 152 175 11,100  Level Miami Center
08:07AM 26.0472 -79.3103 123° Southeast 157 181 11,100  Level Miami Center
08:08AM 26.0186 -79.2775 134° Southeast 152 175 11,100  Level Miami Center
08:09AM 25.9814 -79.2536 150° Southeast 150 173 11,100  Level Miami Center
08:10AM 25.9528 -79.2161 130° Southeast 150 173 11,100  Level Miami Center
08:11AM 25.9450 -79.1672 100° East 150 173 11,100  Level Miami Center
08:12AM 25.9311 -79.1208 108° East 150 173 11,100  Level Miami Center
08:13AM 25.9089 -79.0789 120° Southeast 150 173 11,100  Level Miami Center
08:14AM 25.8781 -79.0414 132° Southeast 158 182 11,100  Level Miami Center
08:15AM 25.8453 -79.0061 136° Southeast 158 182 11,100 -60 Level Miami Center
08:16AM 25.8186 -78.9664 127° Southeast 158 182 11,000 -300 Descending Miami Center
08:17AM 25.7753 -78.9286 142° Southeast 170 196 10,500 -540 Descending Miami Center
08:18AM 25.7444 -78.8819 126° Southeast 182 209 10,000 -600 Descending Miami Center
08:19AM 25.7117 -78.8353 128° Southeast 182 209 9,400 -480 Descending Miami Center
08:20AM 25.6706 -78.7978 141° Southeast 187 215 9,100 -180 Descending Miami Center
08:21AM 25.6439 -78.7583 127° Southeast 176 203 9,100  Level Miami Center
08:22AM 25.6128 -78.7231 134° Southeast 170 196 9,100  Level Miami Center
08:23AM 25.5800 -78.6858 134° Southeast 165 190 9,100  Level Miami Center
08:24AM 25.5489 -78.6508 135° Southeast 165 190 9,100  Level Miami Center
08:25AM 25.5244 -78.6136 126° Southeast 160 184 9,100 -60 Level Miami Center
08:26AM 25.4956 -78.5786 132° Southeast 160 184 9,000 -120 Descending Miami Center
08:27AM 25.4606 -78.5436 138° Southeast 160 184 8,900 -360 Descending Miami Center
08:28AM 25.4294 -78.5017 129° Southeast 166 191 8,300 -600 Descending Miami Center
08:29AM 25.3903 -78.4597 136° Southeast 171 197 7,800 -600 Descending Miami Center
08:30AM 25.3594 -78.4181 129° Southeast 171 197 7,200 -600 Descending Miami Center